Time;durP1;ratioP1;P1;durP2;ratioP2;P2;SDS_P1;SDS_P2;PMS_P1;PMS_P2;Temp;Humidity;BMP_temperature;BMP_pressure;BME280_temperature;BME280_humidity;BME280_pressure;Samples;Min_cycle;Max_cycle;Signal;HPM_P1;HPM_P2
2022/01/25 00:10:14;;;;;;;19.17;10.13;;;3.30;99.90;;;;;;5073534;28;20093;-70
2022/01/25 00:15:57;;;;;;;17.83;9.33;;;3.30;99.90;;;;;;5073122;28;20175;-70
2022/01/25 00:26:47;;;;;;;16.23;7.83;;;3.30;99.90;;;;;;5072722;28;20055;-71
2022/01/25 00:29:27;;;;;;;15.60;8.17;;;3.30;99.90;;;;;;5073081;28;20151;-70
2022/01/25 00:31:54;;;;;;;13.30;6.97;;;3.40;99.90;;;;;;5072892;28;20106;-71
2022/01/25 00:34:21;;;;;;;12.80;7.17;;;3.30;99.90;;;;;;5071711;28;20483;-71
2022/01/25 00:36:50;;;;;;;18.90;7.87;;;3.20;99.90;;;;;;5072699;28;20131;-70
2022/01/25 00:39:17;;;;;;;17.77;7.37;;;3.30;99.90;;;;;;5072681;28;20087;-71
2022/01/25 00:41:43;;;;;;;16.57;7.83;;;3.20;99.90;;;;;;5072665;28;20152;-71
2022/01/25 00:44:12;;;;;;;14.83;8.07;;;3.20;99.90;;;;;;5072543;28;20131;-71
2022/01/25 00:46:39;;;;;;;16.00;8.20;;;3.20;99.90;;;;;;5072503;28;20057;-70
2022/01/25 00:49:07;;;;;;;20.30;8.67;;;3.20;99.90;;;;;;5072816;28;20132;-70
2022/01/25 00:54:28;;;;;;;20.42;9.15;;;3.30;99.90;;;;;;5072399;28;20076;-70
2022/01/25 00:57:01;;;;;;;16.73;8.60;;;3.30;99.90;;;;;;5072487;28;20056;-71
2022/01/25 00:59:32;;;;;;;15.85;8.35;;;3.30;99.90;;;;;;5072232;28;20127;-71
2022/01/25 01:02:05;;;;;;;16.93;8.23;;;3.30;99.90;;;;;;5072038;28;20140;-71
2022/01/25 01:04:33;;;;;;;21.00;8.73;;;3.30;99.90;;;;;;5072145;28;20584;-71
2022/01/25 01:07:01;;;;;;;17.58;8.50;;;3.30;99.90;;;;;;5072231;28;20052;-71
2022/01/25 01:09:34;;;;;;;16.07;8.43;;;3.40;99.90;;;;;;5072397;28;20063;-71
2022/01/25 01:12:09;;;;;;;16.53;8.83;;;3.40;99.90;;;;;;5072266;28;20106;-71
2022/01/25 01:14:53;;;;;;;14.87;8.27;;;3.50;99.90;;;;;;5071351;28;20157;-71
2022/01/25 01:28:46;;;;;;;15.37;8.23;;;3.50;99.90;;;;;;5072116;28;20135;-71
2022/01/25 01:31:27;;;;;;;17.97;8.90;;;3.40;99.90;;;;;;5071759;28;20047;-70
2022/01/25 01:34:28;;;;;;;17.77;9.53;;;3.40;99.90;;;;;;5071720;28;20048;-70
2022/01/25 01:37:23;;;;;;;22.20;10.27;;;3.40;99.90;;;;;;5071938;28;20059;-70
2022/01/25 01:42:58;;;;;;;20.33;10.23;;;3.50;99.90;;;;;;5055576;28;20041;-71
2022/01/25 01:45:38;;;;;;;20.53;9.10;;;3.50;99.90;;;;;;5071674;28;20455;-70
2022/01/25 01:48:08;;;;;;;18.70;9.93;;;3.50;99.90;;;;;;5071466;28;20500;-71
2022/01/25 01:50:37;;;;;;;19.30;9.60;;;3.50;99.90;;;;;;5071845;28;20388;-71
2022/01/25 01:53:06;;;;;;;22.23;10.43;;;3.50;99.90;;;;;;5071300;28;20065;-70
2022/01/25 01:55:35;;;;;;;19.10;9.60;;;3.50;99.90;;;;;;5071309;28;20501;-71
2022/01/25 01:58:05;;;;;;;20.70;10.17;;;3.60;99.90;;;;;;5071437;28;20131;-70
2022/01/25 02:00:35;;;;;;;23.13;10.60;;;3.50;99.90;;;;;;5071268;28;20512;-70
2022/01/25 02:03:03;;;;;;;19.30;9.90;;;3.40;99.90;;;;;;5071379;28;20433;-71
2022/01/25 02:05:31;;;;;;;19.47;10.73;;;3.40;99.90;;;;;;5071301;28;20128;-70
2022/01/25 02:08:01;;;;;;;20.70;10.23;;;3.40;99.90;;;;;;5071309;28;20103;-71
2022/01/25 02:10:28;;;;;;;23.77;10.30;;;3.30;99.90;;;;;;5071509;28;20052;-71
2022/01/25 02:12:56;;;;;;;24.60;11.40;;;3.40;99.90;;;;;;5071237;28;20135;-70
2022/01/25 02:15:26;;;;;;;22.17;11.00;;;3.40;99.90;;;;;;5071289;28;20139;-70
2022/01/25 02:23:25;;;;;;;22.20;11.00;;;3.30;99.90;;;;;;5071447;28;20463;-70
2022/01/25 02:25:54;;;;;;;21.03;11.40;;;3.30;99.90;;;;;;5071198;28;20132;-70
2022/01/25 02:28:22;;;;;;;25.03;12.03;;;3.30;99.90;;;;;;5075119;28;20050;-71
2022/01/25 02:30:49;;;;;;;22.30;11.27;;;3.30;99.90;;;;;;5075110;28;20172;-71
2022/01/25 02:33:16;;;;;;;24.23;11.83;;;3.30;99.90;;;;;;5074868;28;20049;-70
2022/01/25 02:35:45;;;;;;;22.10;10.63;;;3.30;99.90;;;;;;5075113;28;20588;-70
2022/01/25 02:38:14;;;;;;;28.10;12.47;;;3.30;99.90;;;;;;5075154;28;20142;-71
2022/01/25 02:40:41;;;;;;;23.73;10.83;;;3.30;99.90;;;;;;5075011;28;20060;-71
2022/01/25 02:43:09;;;;;;;22.37;10.93;;;3.30;99.90;;;;;;5074822;28;20148;-71
2022/01/25 02:45:37;;;;;;;24.37;11.23;;;3.30;99.90;;;;;;5074606;28;20087;-71
2022/01/25 02:50:51;;;;;;;24.40;11.93;;;3.20;99.90;;;;;;5074852;28;20075;-71
2022/01/25 02:53:18;;;;;;;26.00;11.13;;;3.30;99.90;;;;;;5074627;28;20075;-70
2022/01/25 02:55:45;;;;;;;21.90;10.90;;;3.30;99.90;;;;;;5074587;28;20053;-71
2022/01/25 02:58:12;;;;;;;25.03;12.63;;;3.20;99.90;;;;;;5074510;28;20091;-71
2022/01/25 03:00:39;;;;;;;21.73;11.67;;;3.20;99.90;;;;;;5074937;28;20568;-71
2022/01/25 03:03:06;;;;;;;23.77;12.07;;;3.20;99.90;;;;;;5076799;28;20095;-71
2022/01/25 03:05:33;;;;;;;23.70;11.03;;;3.30;99.90;;;;;;5076457;28;20131;-70
2022/01/25 03:08:01;;;;;;;22.23;12.20;;;3.30;99.90;;;;;;5074534;28;20131;-70
2022/01/25 03:10:35;;;;;;;26.43;12.90;;;3.30;99.90;;;;;;5074437;28;20049;-71
2022/01/25 03:13:03;;;;;;;19.60;11.17;;;3.30;99.90;;;;;;5074406;28;20520;-71
2022/01/25 03:15:53;;;;;;;23.47;12.17;;;3.30;99.90;;;;;;5074514;28;20705;-70
2022/01/25 03:18:37;;;;;;;24.40;12.13;;;3.20;99.90;;;;;;5074206;28;20060;-71
2022/01/25 03:21:19;;;;;;;30.07;12.27;;;3.20;99.90;;;;;;5074235;28;20579;-71
2022/01/25 03:23:48;;;;;;;21.30;11.77;;;3.20;99.90;;;;;;5074084;28;20044;-71
2022/01/25 03:26:16;;;;;;;24.87;12.27;;;3.20;99.90;;;;;;5074170;28;20147;-70
2022/01/25 03:28:43;;;;;;;27.63;12.07;;;3.20;99.90;;;;;;5073993;28;20131;-70
2022/01/25 03:31:10;;;;;;;22.40;11.20;;;3.20;99.90;;;;;;5074117;28;20524;-71
2022/01/25 03:33:38;;;;;;;24.70;12.27;;;3.20;99.90;;;;;;5073831;28;20139;-71
2022/01/25 03:36:07;;;;;;;24.70;13.13;;;3.20;99.90;;;;;;5074083;28;20136;-70
2022/01/25 03:38:35;;;;;;;23.80;12.17;;;3.20;99.90;;;;;;5073273;28;20135;-71
2022/01/25 03:41:04;;;;;;;23.60;12.73;;;3.20;99.90;;;;;;5073952;28;20049;-70
2022/01/25 03:43:31;;;;;;;26.03;12.57;;;3.20;99.90;;;;;;5073706;28;20143;-70
2022/01/25 03:46:03;;;;;;;20.93;10.93;;;3.20;99.90;;;;;;5073632;28;20090;-70
2022/01/25 03:51:14;;;;;;;23.70;11.33;;;3.10;99.90;;;;;;5073774;28;20047;-71
2022/01/25 03:53:41;;;;;;;26.27;11.33;;;3.00;99.90;;;;;;5073441;28;20076;-70
2022/01/25 03:56:10;;;;;;;22.60;11.43;;;3.10;99.90;;;;;;5073424;28;20131;-70
2022/01/25 03:58:36;;;;;;;25.40;12.83;;;3.10;99.90;;;;;;5073402;28;20568;-71
2022/01/25 04:01:03;;;;;;;27.83;12.70;;;3.10;99.90;;;;;;5073497;28;20135;-70
2022/01/25 04:03:35;;;;;;;25.83;12.60;;;3.00;99.90;;;;;;5073512;28;20106;-71
2022/01/25 04:06:03;;;;;;;26.50;12.70;;;3.00;99.90;;;;;;5073607;28;20416;-71
2022/01/25 04:08:33;;;;;;;23.73;11.50;;;3.10;99.90;;;;;;5073314;28;20558;-71
2022/01/25 04:11:00;;;;;;;23.70;10.53;;;3.00;99.90;;;;;;5073299;28;20048;-71
2022/01/25 04:13:28;;;;;;;21.50;11.87;;;3.00;99.90;;;;;;5073072;28;20054;-70
2022/01/25 04:15:58;;;;;;;24.33;11.20;;;3.00;99.90;;;;;;5073144;28;20139;-70
2022/01/25 04:18:32;;;;;;;19.77;10.13;;;3.00;99.90;;;;;;5073396;28;20143;-70
2022/01/25 04:21:13;;;;;;;22.77;10.77;;;2.90;99.90;;;;;;5073085;28;20102;-70
2022/01/25 04:26:24;;;;;;;25.07;10.90;;;2.90;99.90;;;;;;5072952;28;20052;-71
2022/01/25 04:28:53;;;;;;;24.43;10.63;;;2.80;99.90;;;;;;5073112;28;20056;-70
2022/01/25 04:31:20;;;;;;;19.17;10.00;;;2.70;99.90;;;;;;5072889;28;20489;-71
2022/01/25 04:34:08;;;;;;;21.17;10.53;;;2.70;99.90;;;;;;5072637;28;20044;-70
2022/01/25 04:48:47;;;;;;;24.20;10.77;;;2.50;99.90;;;;;;5073073;28;20507;-71
2022/01/25 04:50:58;;;;;;;15.80;8.47;;;2.00;99.90;;;;;;5072532;28;20564;-71
2022/01/25 04:53:36;;;;;;;23.50;9.07;;;1.80;99.90;;;;;;5072685;28;20059;-70
2022/01/25 04:56:10;;;;;;;20.07;10.27;;;1.60;99.90;;;;;;5072542;28;20048;-71
2022/01/25 04:58:43;;;;;;;19.63;9.57;;;1.50;99.90;;;;;;5072521;28;20056;-71
2022/01/25 05:01:11;;;;;;;22.17;10.80;;;1.40;99.90;;;;;;5072610;28;20056;-68
2022/01/25 05:03:53;;;;;;;23.03;11.17;;;1.30;99.90;;;;;;5072272;28;20490;-68
2022/01/25 05:06:20;;;;;;;24.03;10.77;;;1.20;99.90;;;;;;5072594;28;20048;-70
2022/01/25 05:08:51;;;;;;;22.77;11.27;;;1.10;99.90;;;;;;5072397;28;20421;-68
2022/01/25 05:11:26;;;;;;;26.43;11.87;;;1.00;99.90;;;;;;5072390;28;20451;-68
2022/01/25 05:13:59;;;;;;;22.70;11.07;;;1.00;99.90;;;;;;5072197;28;20052;-68
2022/01/25 05:16:31;;;;;;;24.10;11.77;;;1.00;99.90;;;;;;5072666;28;20061;-68
2022/01/25 05:19:09;;;;;;;24.77;12.37;;;1.00;99.90;;;;;;5072453;28;20053;-68
2022/01/25 05:24:22;;;;;;;26.90;12.07;;;0.90;99.90;;;;;;5072085;28;20372;-70
2022/01/25 05:26:49;;;;;;;27.43;12.40;;;0.90;99.90;;;;;;5072212;28;20084;-71
2022/01/25 05:29:16;;;;;;;28.23;13.07;;;0.90;99.90;;;;;;5072083;28;20151;-71
2022/01/25 05:31:44;;;;;;;31.30;13.07;;;0.80;99.90;;;;;;5072105;28;20132;-68
2022/01/25 05:34:11;;;;;;;26.13;12.63;;;1.00;99.90;;;;;;5071880;28;20535;-70
2022/01/25 05:36:39;;;;;;;26.13;12.40;;;1.00;99.90;;;;;;5071836;28;20127;-68
2022/01/25 05:39:11;;;;;;;27.47;12.90;;;1.00;99.90;;;;;;5072256;28;20080;-68
2022/01/25 05:41:40;;;;;;;25.67;12.57;;;0.90;99.90;;;;;;5072162;28;20071;-68
2022/01/25 05:44:22;;;;;;;23.40;11.70;;;0.90;99.90;;;;;;5071867;28;20040;-68
2022/01/25 05:47:04;;;;;;;27.63;12.87;;;0.90;99.90;;;;;;5071896;28;20083;-68
2022/01/25 05:49:31;;;;;;;27.83;11.63;;;0.90;99.90;;;;;;5071807;28;20136;-68
2022/01/25 05:51:58;;;;;;;29.63;13.47;;;0.90;99.90;;;;;;5073411;28;20072;-71
2022/01/25 05:54:25;;;;;;;31.13;12.30;;;0.90;99.90;;;;;;5072461;28;20139;-68
2022/01/25 05:56:52;;;;;;;24.17;13.47;;;0.90;99.90;;;;;;5072164;28;20115;-68
2022/01/25 05:59:19;;;;;;;25.17;13.27;;;0.90;99.90;;;;;;5072739;28;20135;-68
2022/01/25 06:01:46;;;;;;;24.03;12.57;;;0.80;99.90;;;;;;5071299;28;20048;-68
2022/01/25 06:04:15;;;;;;;30.37;12.30;;;0.80;99.90;;;;;;5071708;28;20102;-69
2022/01/25 06:06:42;;;;;;;30.60;14.30;;;0.80;99.90;;;;;;5071805;28;20080;-68
2022/01/25 06:09:09;;;;;;;28.17;12.23;;;0.90;99.90;;;;;;5071701;28;20131;-69
2022/01/25 06:11:37;;;;;;;27.43;12.97;;;0.90;99.90;;;;;;5071615;28;20059;-69
2022/01/25 06:14:04;;;;;;;26.43;13.27;;;1.00;99.90;;;;;;5071509;28;20150;-69
2022/01/25 06:16:31;;;;;;;27.83;12.77;;;1.00;99.90;;;;;;5071579;28;20098;-69
2022/01/25 06:18:59;;;;;;;30.43;13.80;;;1.10;99.90;;;;;;5071559;28;20132;-69
2022/01/25 06:21:28;;;;;;;25.87;11.70;;;1.00;99.90;;;;;;5071524;28;20131;-69
2022/01/25 06:23:55;;;;;;;33.43;13.30;;;1.00;99.90;;;;;;5071398;28;20132;-69
2022/01/25 06:26:22;;;;;;;31.20;13.43;;;0.90;99.90;;;;;;5071339;28;20052;-69
2022/01/25 06:28:49;;;;;;;27.37;12.87;;;0.90;99.90;;;;;;5071318;28;20143;-69
2022/01/25 06:31:18;;;;;;;27.43;13.20;;;1.10;99.90;;;;;;5071432;28;20131;-69
2022/01/25 06:33:45;;;;;;;29.30;14.03;;;1.10;99.90;;;;;;5071634;28;20057;-69
2022/01/25 06:36:12;;;;;;;29.67;14.37;;;1.20;99.90;;;;;;5070973;28;20051;-69
2022/01/25 06:38:41;;;;;;;27.63;14.57;;;1.20;99.90;;;;;;5071330;28;20146;-69
2022/01/25 06:41:09;;;;;;;32.20;14.63;;;1.20;99.90;;;;;;5071139;28;20132;-68
2022/01/25 06:43:37;;;;;;;26.57;12.67;;;1.20;99.90;;;;;;5071322;28;20416;-70
2022/01/25 06:46:04;;;;;;;24.93;13.20;;;1.30;99.90;;;;;;5071009;28;20481;-69
2022/01/25 06:48:31;;;;;;;27.97;13.37;;;1.40;99.90;;;;;;5071378;28;20493;-68
2022/01/25 06:50:58;;;;;;;32.20;14.43;;;1.40;99.90;;;;;;5071219;28;20127;-68
2022/01/25 06:53:25;;;;;;;30.13;13.37;;;1.50;99.90;;;;;;5070994;28;20131;-68
2022/01/25 06:55:54;;;;;;;30.83;14.40;;;1.40;99.90;;;;;;5070924;28;20091;-69
2022/01/25 06:58:21;;;;;;;30.93;13.00;;;1.50;99.90;;;;;;5071619;28;20106;-69
2022/01/25 07:00:48;;;;;;;28.07;13.50;;;1.50;99.90;;;;;;5074313;28;20127;-69
2022/01/25 07:03:15;;;;;;;27.60;13.10;;;1.60;99.90;;;;;;5074150;28;20591;-69
2022/01/25 07:05:42;;;;;;;27.67;13.63;;;1.50;99.90;;;;;;5074569;28;20140;-68
2022/01/25 07:08:09;;;;;;;27.57;13.87;;;1.50;99.90;;;;;;5071759;28;20575;-68
2022/01/25 07:10:36;;;;;;;30.00;13.73;;;1.50;99.90;;;;;;5071693;28;20064;-69
2022/01/25 07:13:05;;;;;;;27.20;13.87;;;1.60;99.90;;;;;;5071563;28;20131;-68
2022/01/25 07:15:32;;;;;;;26.10;14.60;;;1.60;99.90;;;;;;5074368;28;20048;-68
2022/01/25 07:17:59;;;;;;;32.00;14.33;;;1.70;99.90;;;;;;5074485;28;20090;-68
2022/01/25 07:20:26;;;;;;;29.87;14.40;;;1.70;99.90;;;;;;5074599;28;20131;-69
2022/01/25 07:22:53;;;;;;;33.17;14.43;;;1.80;99.90;;;;;;5074543;28;20080;-69
2022/01/25 07:25:21;;;;;;;26.37;13.43;;;1.80;99.90;;;;;;5074380;28;20503;-69
2022/01/25 07:27:48;;;;;;;27.70;13.37;;;1.80;99.90;;;;;;5074751;28;20064;-69
2022/01/25 07:30:17;;;;;;;27.50;13.93;;;1.80;99.90;;;;;;5074588;28;20048;-69
2022/01/25 07:32:44;;;;;;;29.97;14.17;;;1.90;99.90;;;;;;5074526;28;20136;-68
2022/01/25 07:35:11;;;;;;;29.20;14.23;;;2.00;99.90;;;;;;5074056;28;20055;-69
2022/01/25 07:37:38;;;;;;;36.10;14.03;;;2.00;99.90;;;;;;5074571;28;20456;-68
2022/01/25 07:40:07;;;;;;;31.37;14.77;;;2.10;99.90;;;;;;5074041;28;20147;-69
2022/01/25 07:42:36;;;;;;;28.03;13.67;;;2.10;99.90;;;;;;5074111;28;20083;-68
2022/01/25 07:45:07;;;;;;;28.67;14.33;;;2.20;99.90;;;;;;5074080;28;20059;-71
2022/01/25 07:47:36;;;;;;;35.90;16.20;;;2.20;99.90;;;;;;5074437;28;20056;-69
2022/01/25 07:50:04;;;;;;;36.97;14.80;;;2.20;99.90;;;;;;5073807;28;20151;-69
2022/01/25 07:52:31;;;;;;;32.83;15.07;;;2.20;99.90;;;;;;5073612;28;20143;-68
2022/01/25 07:54:58;;;;;;;31.13;15.60;;;2.30;99.90;;;;;;5073528;28;20136;-68
2022/01/25 07:57:25;;;;;;;29.10;14.03;;;2.20;99.90;;;;;;5073685;28;20123;-68
2022/01/25 07:59:53;;;;;;;29.30;13.87;;;2.20;99.90;;;;;;5073636;28;20048;-69
2022/01/25 08:02:21;;;;;;;27.43;12.87;;;2.20;99.90;;;;;;5073438;28;20473;-69
2022/01/25 08:04:50;;;;;;;30.13;14.67;;;2.30;99.90;;;;;;5073496;28;20048;-69
2022/01/25 08:07:17;;;;;;;29.60;14.00;;;2.30;99.90;;;;;;5073615;28;20136;-69
2022/01/25 08:09:45;;;;;;;29.10;14.13;;;2.40;99.90;;;;;;5074174;28;20135;-69
2022/01/25 08:12:12;;;;;;;29.53;14.20;;;2.50;99.90;;;;;;5073541;28;20131;-68
2022/01/25 08:14:41;;;;;;;27.47;13.63;;;2.50;99.90;;;;;;5073585;28;20053;-69
2022/01/25 08:17:09;;;;;;;25.33;12.33;;;2.40;99.90;;;;;;5073319;28;20519;-68
2022/01/25 08:19:36;;;;;;;28.37;12.37;;;2.40;99.90;;;;;;5073448;28;20560;-68
2022/01/25 08:22:04;;;;;;;27.57;12.27;;;2.30;99.90;;;;;;5073740;28;20131;-68
2022/01/25 08:24:31;;;;;;;25.27;11.57;;;2.20;99.90;;;;;;5073376;28;20080;-68
2022/01/25 08:26:58;;;;;;;30.07;13.23;;;2.10;99.90;;;;;;5074007;28;20053;-69
2022/01/25 08:29:25;;;;;;;26.87;12.60;;;1.80;99.90;;;;;;5073630;28;20131;-68
2022/01/25 08:31:52;;;;;;;25.17;12.13;;;1.90;99.90;;;;;;5073476;28;20132;-68
2022/01/25 08:34:19;;;;;;;28.87;13.17;;;2.00;99.90;;;;;;5073147;28;20131;-69
2022/01/25 08:36:46;;;;;;;28.37;13.57;;;1.90;99.90;;;;;;5073568;28;20485;-68
2022/01/25 08:39:15;;;;;;;26.43;13.57;;;1.80;99.90;;;;;;5073671;28;20091;-68
2022/01/25 08:41:41;;;;;;;28.97;13.13;;;1.70;99.90;;;;;;5073023;28;20052;-68
2022/01/25 08:44:08;;;;;;;29.50;14.37;;;1.70;99.90;;;;;;5072713;28;20484;-68
2022/01/25 08:46:35;;;;;;;31.30;15.23;;;1.60;99.90;;;;;;5072571;28;20052;-68
2022/01/25 08:49:03;;;;;;;34.07;15.57;;;1.70;99.90;;;;;;5072896;28;20143;-68
2022/01/25 08:51:29;;;;;;;27.13;12.77;;;1.50;99.90;;;;;;5072692;28;20127;-68
2022/01/25 08:53:56;;;;;;;35.50;15.83;;;1.50;99.90;;;;;;5072788;28;20473;-68
2022/01/25 08:56:25;;;;;;;31.90;14.23;;;1.50;99.90;;;;;;5072330;28;20087;-68
2022/01/25 08:58:52;;;;;;;33.60;16.00;;;1.50;99.90;;;;;;5072365;28;20136;-68
2022/01/25 09:01:19;;;;;;;35.80;16.70;;;1.60;99.90;;;;;;5072505;28;20098;-68
2022/01/25 09:03:45;;;;;;;33.07;15.17;;;1.60;99.90;;;;;;5072312;28;20143;-68
2022/01/25 09:06:12;;;;;;;33.57;15.47;;;1.80;99.90;;;;;;5072298;28;20140;-68
2022/01/25 09:08:39;;;;;;;30.50;15.13;;;1.80;99.90;;;;;;5072365;28;20080;-68
2022/01/25 09:11:07;;;;;;;33.90;15.30;;;1.80;99.90;;;;;;5072315;28;20048;-69
2022/01/25 09:13:36;;;;;;;35.53;15.07;;;1.80;99.90;;;;;;5072311;28;20052;-68
2022/01/25 09:16:03;;;;;;;37.13;15.57;;;1.50;99.90;;;;;;5072069;28;20076;-68
2022/01/25 09:18:30;;;;;;;39.27;16.43;;;1.40;99.90;;;;;;5072040;28;20132;-69
2022/01/25 09:20:57;;;;;;;41.07;17.50;;;1.20;99.90;;;;;;5072120;28;20048;-68
2022/01/25 09:23:25;;;;;;;34.83;15.90;;;1.20;99.90;;;;;;5072263;28;20083;-68
2022/01/25 09:25:52;;;;;;;40.70;16.70;;;1.10;99.90;;;;;;5072087;28;20056;-68
2022/01/25 09:28:20;;;;;;;41.07;16.97;;;1.30;99.90;;;;;;5072304;28;20140;-68
2022/01/25 09:30:49;;;;;;;38.30;15.37;;;1.40;99.90;;;;;;5072043;28;20080;-68
2022/01/25 09:33:16;;;;;;;41.03;16.03;;;1.50;99.90;;;;;;5072100;28;20087;-68
2022/01/25 09:35:44;;;;;;;42.13;15.80;;;1.50;99.90;;;;;;5071197;28;20128;-68
2022/01/25 09:38:11;;;;;;;37.73;17.20;;;1.60;99.90;;;;;;5071895;28;20122;-68
2022/01/25 09:40:38;;;;;;;38.63;16.43;;;1.60;99.90;;;;;;5071935;28;20099;-69
2022/01/25 09:43:07;;;;;;;38.10;16.53;;;1.60;99.90;;;;;;5071819;28;20088;-68
2022/01/25 09:45:34;;;;;;;40.77;16.43;;;1.60;99.90;;;;;;5071914;28;20118;-68
2022/01/25 09:48:03;;;;;;;45.37;17.53;;;1.70;99.90;;;;;;5071884;28;20131;-68
2022/01/25 09:50:31;;;;;;;41.03;16.60;;;1.70;99.90;;;;;;5071915;28;20513;-69
2022/01/25 09:53:00;;;;;;;44.57;17.53;;;1.80;99.90;;;;;;5071719;28;20105;-68
2022/01/25 09:55:30;;;;;;;46.40;18.53;;;1.80;99.90;;;;;;5071882;28;20148;-70
2022/01/25 09:57:57;;;;;;;43.50;18.33;;;1.70;99.90;;;;;;5072329;28;20421;-68
2022/01/25 10:00:29;;;;;;;42.97;17.37;;;1.70;99.90;;;;;;5071757;28;20117;-69
2022/01/25 10:03:04;;;;;;;49.03;16.80;;;1.70;99.90;;;;;;5071440;28;20554;-68
2022/01/25 10:05:36;;;;;;;40.87;17.27;;;1.80;99.90;;;;;;5071231;28;20139;-68
2022/01/25 10:08:06;;;;;;;42.67;16.03;;;1.80;99.90;;;;;;5071835;28;20075;-69
2022/01/25 10:10:34;;;;;;;46.67;17.67;;;1.90;99.90;;;;;;5071700;28;20053;-68
2022/01/25 10:13:09;;;;;;;39.70;16.00;;;1.80;99.90;;;;;;5071412;28;20133;-69
2022/01/25 10:15:37;;;;;;;45.30;17.23;;;1.70;99.90;;;;;;5071249;28;20127;-68
2022/01/25 10:18:05;;;;;;;39.57;17.47;;;1.80;99.90;;;;;;5071487;28;20531;-69
2022/01/25 10:20:36;;;;;;;44.27;18.10;;;1.80;99.90;;;;;;5071405;28;20131;-68
2022/01/25 10:23:10;;;;;;;45.70;17.07;;;1.60;99.90;;;;;;5071610;28;20131;-68
2022/01/25 10:25:39;;;;;;;44.47;17.27;;;1.50;99.90;;;;;;5071629;28;20056;-68
2022/01/25 10:28:12;;;;;;;45.70;17.70;;;1.50;99.90;;;;;;5071469;28;20044;-68
2022/01/25 10:30:42;;;;;;;47.07;17.87;;;1.50;99.90;;;;;;5071599;28;20060;-68
2022/01/25 10:33:21;;;;;;;44.27;16.60;;;1.50;99.90;;;;;;5071345;28;20055;-68
2022/01/25 10:35:49;;;;;;;47.97;17.80;;;1.50;99.90;;;;;;5071217;28;20607;-68
2022/01/25 10:38:27;;;;;;;41.80;17.20;;;1.50;99.90;;;;;;5071264;28;20572;-68
2022/01/25 10:40:56;;;;;;;43.93;17.73;;;1.40;99.90;;;;;;5071270;28;20132;-68
2022/01/25 10:43:24;;;;;;;44.07;18.30;;;1.40;99.90;;;;;;5071343;28;20477;-69
2022/01/25 10:46:12;;;;;;;49.87;18.83;;;1.30;99.90;;;;;;5071210;28;20140;-68
2022/01/25 10:48:42;;;;;;;51.43;19.07;;;1.40;99.90;;;;;;5073983;28;20056;-68
2022/01/25 10:51:12;;;;;;;48.53;17.83;;;1.40;99.90;;;;;;5074958;28;20139;-68
2022/01/25 10:53:39;;;;;;;45.67;18.27;;;1.40;99.90;;;;;;5074975;28;20128;-68
2022/01/25 10:56:08;;;;;;;45.63;17.50;;;1.40;99.90;;;;;;5074878;28;20051;-69
2022/01/25 10:58:38;;;;;;;51.17;17.97;;;1.50;99.90;;;;;;5074860;28;20128;-68
2022/01/25 11:01:06;;;;;;;41.40;17.27;;;1.60;99.90;;;;;;5074815;28;20052;-68
2022/01/25 11:03:35;;;;;;;44.43;16.73;;;1.70;99.90;;;;;;5074573;28;20143;-68
2022/01/25 11:06:12;;;;;;;55.97;20.67;;;1.90;99.90;;;;;;5074585;28;20412;-68
2022/01/25 11:08:41;;;;;;;51.23;20.47;;;1.90;99.90;;;;;;5074664;28;20128;-68
2022/01/25 11:11:11;;;;;;;46.93;18.30;;;1.80;99.90;;;;;;5074482;28;20124;-68
2022/01/25 11:13:41;;;;;;;47.07;18.57;;;1.70;99.90;;;;;;5074701;28;20056;-68
2022/01/25 11:16:10;;;;;;;49.63;19.27;;;1.80;99.90;;;;;;5074382;28;20394;-68
2022/01/25 11:18:38;;;;;;;45.43;18.53;;;1.80;99.90;;;;;;5074466;28;20580;-68
2022/01/25 11:21:06;;;;;;;47.30;18.93;;;1.90;99.90;;;;;;5074339;28;20132;-68
2022/01/25 11:23:37;;;;;;;47.73;19.63;;;1.80;99.90;;;;;;5074314;28;20083;-68
2022/01/25 11:26:07;;;;;;;51.83;19.03;;;1.70;99.90;;;;;;5074183;28;20140;-68
2022/01/25 11:28:36;;;;;;;45.07;18.60;;;1.80;99.90;;;;;;5074248;28;20584;-68
2022/01/25 11:31:06;;;;;;;45.17;17.93;;;1.70;99.90;;;;;;5074127;28;20135;-69
2022/01/25 11:33:36;;;;;;;51.37;19.30;;;1.70;99.90;;;;;;5074117;28;20139;-68
2022/01/25 11:36:07;;;;;;;49.53;18.63;;;1.70;99.90;;;;;;5073774;28;20088;-68
2022/01/25 11:38:41;;;;;;;46.63;18.67;;;1.70;99.90;;;;;;5074093;28;20505;-69
2022/01/25 11:41:13;;;;;;;49.20;19.53;;;1.70;99.90;;;;;;5073947;28;20048;-68
2022/01/25 11:43:44;;;;;;;55.37;18.80;;;1.90;99.90;;;;;;5053841;28;20132;-68
2022/01/25 11:46:11;;;;;;;45.03;19.27;;;2.00;99.90;;;;;;5045822;28;20057;-69
2022/01/25 11:48:42;;;;;;;49.27;17.90;;;2.20;99.90;;;;;;5053643;28;20128;-68
2022/01/25 11:51:17;;;;;;;48.93;20.00;;;2.30;99.90;;;;;;5053751;28;20139;-68
2022/01/25 11:53:48;;;;;;;47.80;19.13;;;2.20;99.90;;;;;;5059903;28;20127;-68
2022/01/25 11:56:16;;;;;;;48.73;18.53;;;1.90;99.90;;;;;;5053471;28;20084;-69
2022/01/25 11:58:52;;;;;;;54.37;19.63;;;1.90;99.90;;;;;;5053161;28;20084;-68
2022/01/25 12:01:22;;;;;;;57.50;20.83;;;1.80;99.90;;;;;;5053318;28;20055;-69
2022/01/25 12:03:52;;;;;;;47.80;19.90;;;1.70;99.90;;;;;;5070465;28;20103;-68
2022/01/25 12:06:24;;;;;;;59.90;20.53;;;1.70;99.90;;;;;;5073179;28;20139;-68
2022/01/25 12:09:10;;;;;;;55.27;20.33;;;1.70;99.90;;;;;;5073815;28;20131;-68
2022/01/25 12:11:44;;;;;;;56.57;18.67;;;1.70;99.90;;;;;;5073335;28;20053;-68
2022/01/25 12:14:14;;;;;;;53.07;19.57;;;1.60;99.90;;;;;;5073494;28;20052;-68
2022/01/25 12:16:44;;;;;;;51.53;19.90;;;1.60;99.90;;;;;;5072842;28;20599;-68
2022/01/25 12:19:12;;;;;;;54.53;20.30;;;1.60;99.90;;;;;;5073496;28;20088;-68
2022/01/25 12:21:56;;;;;;;56.70;20.40;;;1.70;99.90;;;;;;5073284;28;20084;-68
2022/01/25 12:24:30;;;;;;;55.00;20.97;;;1.70;99.90;;;;;;5071361;28;20052;-68
2022/01/25 12:27:03;;;;;;;59.20;21.73;;;1.80;99.90;;;;;;5073270;28;20059;-68
2022/01/25 12:29:32;;;;;;;54.63;19.73;;;1.80;99.90;;;;;;5073300;28;20106;-68
2022/01/25 12:32:17;;;;;;;56.20;19.27;;;1.70;99.90;;;;;;5073426;28;20102;-69
2022/01/25 12:35:09;;;;;;;56.80;18.60;;;1.60;99.90;;;;;;5072959;28;20148;-69
2022/01/25 12:38:00;;;;;;;61.33;19.87;;;1.50;99.90;;;;;;5072774;28;20492;-69
2022/01/25 12:40:40;;;;;;;53.00;19.27;;;1.70;99.90;;;;;;5072946;28;20132;-69
2022/01/25 12:43:09;;;;;;;60.43;20.30;;;1.50;99.90;;;;;;5072835;28;20128;-69
2022/01/25 12:45:40;;;;;;;57.57;19.57;;;1.60;99.90;;;;;;5072517;28;20056;-69
2022/01/25 12:48:09;;;;;;;57.67;20.03;;;1.70;99.90;;;;;;5072851;28;20139;-69
2022/01/25 12:50:38;;;;;;;54.53;19.07;;;1.70;99.90;;;;;;5072529;28;20136;-69
2022/01/25 12:53:07;;;;;;;60.43;21.77;;;1.90;99.90;;;;;;5072371;28;20135;-69
2022/01/25 12:55:39;;;;;;;57.43;20.97;;;1.90;99.90;;;;;;5072777;28;20135;-69
2022/01/25 12:58:07;;;;;;;49.93;18.13;;;1.80;99.90;;;;;;5072822;28;20079;-69
2022/01/25 13:00:38;;;;;;;52.90;21.10;;;1.70;99.90;;;;;;5072330;28;20131;-69
2022/01/25 13:03:28;;;;;;;49.97;18.97;;;1.80;99.90;;;;;;5072699;28;20464;-69
2022/01/25 13:05:58;;;;;;;60.43;19.80;;;1.80;99.90;;;;;;5072878;28;20060;-69
2022/01/25 13:08:28;;;;;;;57.77;20.47;;;1.70;99.90;;;;;;5072399;28;20139;-69
2022/01/25 13:11:17;;;;;;;60.40;20.13;;;1.70;99.90;;;;;;5072267;28;20230;-69
2022/01/25 13:13:58;;;;;;;55.07;19.33;;;1.60;99.90;;;;;;5072369;28;20056;-69
2022/01/25 13:16:45;;;;;;;53.87;19.17;;;1.80;99.90;;;;;;5072464;28;20143;-69
2022/01/25 13:19:14;;;;;;;56.17;19.15;;;1.80;99.90;;;;;;5072322;28;20131;-69
2022/01/25 13:21:43;;;;;;;54.80;19.13;;;1.80;99.90;;;;;;5072127;28;20060;-69
2022/01/25 13:24:15;;;;;;;53.73;18.00;;;1.70;99.90;;;;;;5072175;28;20135;-69
2022/01/25 13:26:55;;;;;;;60.83;20.97;;;1.60;99.90;;;;;;5071903;28;20098;-69
2022/01/25 13:32:17;;;;;;;57.43;21.13;;;1.90;99.90;;;;;;5072417;28;20106;-69
2022/01/25 13:34:44;;;;;;;49.17;20.00;;;1.90;99.90;;;;;;5072044;28;20135;-69
2022/01/25 13:37:21;;;;;;;54.17;20.60;;;1.80;99.90;;;;;;5072401;28;20555;-69
2022/01/25 13:39:57;;;;;;;54.30;18.50;;;1.90;99.90;;;;;;5073128;28;20135;-69
2022/01/25 13:42:35;;;;;;;49.20;19.23;;;1.90;99.90;;;;;;5054085;28;20072;-69
2022/01/25 13:47:57;;;;;;;55.50;18.30;;;1.80;99.90;;;;;;5058861;28;20384;-69
2022/01/25 13:50:25;;;;;;;54.13;19.47;;;1.80;99.90;;;;;;5072376;28;20573;-69
2022/01/25 13:52:52;;;;;;;53.33;18.90;;;1.70;99.90;;;;;;5077819;28;20099;-69
2022/01/25 13:55:20;;;;;;;55.80;18.40;;;1.80;99.90;;;;;;5078214;28;20105;-70
2022/01/25 13:57:48;;;;;;;47.43;18.00;;;1.80;99.90;;;;;;5078065;28;20049;-70
2022/01/25 14:00:16;;;;;;;51.57;18.73;;;1.80;99.90;;;;;;5076627;28;20567;-70
2022/01/25 14:02:43;;;;;;;57.53;19.70;;;1.60;99.90;;;;;;5076927;28;20088;-70
2022/01/25 14:05:10;;;;;;;54.00;19.43;;;1.50;99.90;;;;;;5075054;28;20477;-70